sensor_id;sensor_type;location;lat;lon;timestamp;P1;durP1;ratioP1;P2;durP2;ratioP2
44824;SDS011;30542;47.928;2.138;2023-01-08T00:03:39;1.17;;;0.45;;
44824;SDS011;30542;47.928;2.138;2023-01-08T00:08:40;0.85;;;0.50;;
44824;SDS011;30542;47.928;2.138;2023-01-08T00:13:40;1.38;;;0.60;;
44824;SDS011;30542;47.928;2.138;2023-01-08T00:18:41;0.80;;;0.50;;
44824;SDS011;30542;47.928;2.138;2023-01-08T00:23:42;0.63;;;0.32;;
44824;SDS011;30542;47.928;2.138;2023-01-08T00:28:43;0.38;;;0.38;;
44824;SDS011;30542;47.928;2.138;2023-01-08T00:33:43;0.97;;;0.57;;
44824;SDS011;30542;47.928;2.138;2023-01-08T00:38:44;0.80;;;0.37;;
44824;SDS011;30542;47.928;2.138;2023-01-08T00:43:45;0.70;;;0.35;;
44824;SDS011;30542;47.928;2.138;2023-01-08T00:48:46;1.73;;;0.53;;
44824;SDS011;30542;47.928;2.138;2023-01-08T00:53:46;0.60;;;0.40;;
44824;SDS011;30542;47.928;2.138;2023-01-08T00:58:46;1.23;;;0.40;;
44824;SDS011;30542;47.928;2.138;2023-01-08T01:03:47;0.37;;;0.37;;
44824;SDS011;30542;47.928;2.138;2023-01-08T01:08:47;0.50;;;0.40;;
44824;SDS011;30542;47.928;2.138;2023-01-08T01:13:48;0.60;;;0.43;;
44824;SDS011;30542;47.928;2.138;2023-01-08T01:18:48;0.88;;;0.40;;
44824;SDS011;30542;47.928;2.138;2023-01-08T01:24:04;0.82;;;0.40;;
44824;SDS011;30542;47.928;2.138;2023-01-08T01:29:05;0.68;;;0.40;;
44824;SDS011;30542;47.928;2.138;2023-01-08T01:34:05;0.37;;;0.30;;
44824;SDS011;30542;47.928;2.138;2023-01-08T01:39:06;0.73;;;0.40;;
44824;SDS011;30542;47.928;2.138;2023-01-08T01:50:14;0.40;;;0.40;;
44824;SDS011;30542;47.928;2.138;2023-01-08T01:55:18;0.47;;;0.30;;
44824;SDS011;30542;47.928;2.138;2023-01-08T02:00:19;1.70;;;0.50;;
44824;SDS011;30542;47.928;2.138;2023-01-08T02:05:21;1.08;;;0.40;;
44824;SDS011;30542;47.928;2.138;2023-01-08T02:10:29;0.30;;;0.20;;
44824;SDS011;30542;47.928;2.138;2023-01-08T02:15:39;0.40;;;0.30;;
44824;SDS011;30542;47.928;2.138;2023-01-08T02:26:37;0.60;;;0.30;;
44824;SDS011;30542;47.928;2.138;2023-01-08T02:31:39;0.30;;;0.30;;
44824;SDS011;30542;47.928;2.138;2023-01-08T02:36:54;1.63;;;0.45;;
44824;SDS011;30542;47.928;2.138;2023-01-08T02:48:00;1.65;;;0.30;;
44824;SDS011;30542;47.928;2.138;2023-01-08T02:52:46;0.75;;;0.50;;
44824;SDS011;30542;47.928;2.138;2023-01-08T02:58:00;0.50;;;0.30;;
44824;SDS011;30542;47.928;2.138;2023-01-08T03:03:04;0.85;;;0.40;;
44824;SDS011;30542;47.928;2.138;2023-01-08T03:08:09;0.50;;;0.30;;
44824;SDS011;30542;47.928;2.138;2023-01-08T03:13:13;0.35;;;0.28;;
44824;SDS011;30542;47.928;2.138;2023-01-08T03:18:23;0.70;;;0.30;;
44824;SDS011;30542;47.928;2.138;2023-01-08T03:23:31;0.50;;;0.30;;
44824;SDS011;30542;47.928;2.138;2023-01-08T03:28:36;0.30;;;0.17;;
44824;SDS011;30542;47.928;2.138;2023-01-08T03:33:41;0.88;;;0.40;;
44824;SDS011;30542;47.928;2.138;2023-01-08T03:38:46;0.40;;;0.30;;
44824;SDS011;30542;47.928;2.138;2023-01-08T03:43:53;0.63;;;0.40;;
44824;SDS011;30542;47.928;2.138;2023-01-08T03:48:53;0.30;;;0.20;;
44824;SDS011;30542;47.928;2.138;2023-01-08T03:53:55;0.60;;;0.25;;
44824;SDS011;30542;47.928;2.138;2023-01-08T03:58:58;0.60;;;0.30;;
44824;SDS011;30542;47.928;2.138;2023-01-08T04:03:58;0.50;;;0.20;;
44824;SDS011;30542;47.928;2.138;2023-01-08T04:08:59;0.40;;;0.30;;
44824;SDS011;30542;47.928;2.138;2023-01-08T04:13:59;0.77;;;0.50;;
44824;SDS011;30542;47.928;2.138;2023-01-08T04:19:00;1.02;;;0.32;;
44824;SDS011;30542;47.928;2.138;2023-01-08T04:24:00;0.30;;;0.28;;
44824;SDS011;30542;47.928;2.138;2023-01-08T04:29:01;0.70;;;0.30;;
44824;SDS011;30542;47.928;2.138;2023-01-08T04:34:02;0.50;;;0.22;;
44824;SDS011;30542;47.928;2.138;2023-01-08T04:39:03;0.80;;;0.20;;
44824;SDS011;30542;47.928;2.138;2023-01-08T04:44:04;0.20;;;0.20;;
44824;SDS011;30542;47.928;2.138;2023-01-08T04:49:04;0.47;;;0.30;;
44824;SDS011;30542;47.928;2.138;2023-01-08T04:54:05;0.47;;;0.25;;
44824;SDS011;30542;47.928;2.138;2023-01-08T04:59:05;0.50;;;0.38;;
44824;SDS011;30542;47.928;2.138;2023-01-08T05:04:06;0.63;;;0.30;;
44824;SDS011;30542;47.928;2.138;2023-01-08T05:09:06;0.30;;;0.20;;
44824;SDS011;30542;47.928;2.138;2023-01-08T05:14:07;0.40;;;0.20;;
44824;SDS011;30542;47.928;2.138;2023-01-08T05:19:07;0.52;;;0.20;;
44824;SDS011;30542;47.928;2.138;2023-01-08T05:24:08;0.60;;;0.20;;
44824;SDS011;30542;47.928;2.138;2023-01-08T05:29:09;0.22;;;0.20;;
44824;SDS011;30542;47.928;2.138;2023-01-08T05:34:09;0.95;;;0.20;;
44824;SDS011;30542;47.928;2.138;2023-01-08T05:39:09;0.20;;;0.20;;
44824;SDS011;30542;47.928;2.138;2023-01-08T05:44:10;0.37;;;0.20;;
44824;SDS011;30542;47.928;2.138;2023-01-08T05:49:10;0.20;;;0.20;;
44824;SDS011;30542;47.928;2.138;2023-01-08T05:54:11;0.50;;;0.20;;
44824;SDS011;30542;47.928;2.138;2023-01-08T05:59:11;0.30;;;0.20;;
44824;SDS011;30542;47.928;2.138;2023-01-08T06:04:12;0.70;;;0.20;;
44824;SDS011;30542;47.928;2.138;2023-01-08T06:09:13;0.20;;;0.20;;
44824;SDS011;30542;47.928;2.138;2023-01-08T06:14:14;0.57;;;0.20;;
44824;SDS011;30542;47.928;2.138;2023-01-08T06:19:15;0.30;;;0.20;;
44824;SDS011;30542;47.928;2.138;2023-01-08T06:24:18;0.50;;;0.20;;
44824;SDS011;30542;47.928;2.138;2023-01-08T06:29:19;0.20;;;0.10;;
44824;SDS011;30542;47.928;2.138;2023-01-08T06:34:19;0.82;;;0.30;;
44824;SDS011;30542;47.928;2.138;2023-01-08T06:39:20;0.27;;;0.20;;
44824;SDS011;30542;47.928;2.138;2023-01-08T06:44:20;0.40;;;0.20;;
44824;SDS011;30542;47.928;2.138;2023-01-08T06:49:21;0.25;;;0.10;;
44824;SDS011;30542;47.928;2.138;2023-01-08T06:54:22;0.45;;;0.20;;
44824;SDS011;30542;47.928;2.138;2023-01-08T06:59:23;0.27;;;0.20;;
44824;SDS011;30542;47.928;2.138;2023-01-08T07:04:23;0.52;;;0.10;;
44824;SDS011;30542;47.928;2.138;2023-01-08T07:09:24;0.22;;;0.20;;
44824;SDS011;30542;47.928;2.138;2023-01-08T07:14:24;0.20;;;0.20;;
44824;SDS011;30542;47.928;2.138;2023-01-08T07:19:24;0.10;;;0.10;;
44824;SDS011;30542;47.928;2.138;2023-01-08T07:24:25;0.63;;;0.20;;
44824;SDS011;30542;47.928;2.138;2023-01-08T07:29:25;1.37;;;0.27;;
44824;SDS011;30542;47.928;2.138;2023-01-08T07:34:26;0.37;;;0.10;;
44824;SDS011;30542;47.928;2.138;2023-01-08T07:39:26;2.50;;;0.10;;
44824;SDS011;30542;47.928;2.138;2023-01-08T07:44:27;1.20;;;0.10;;
44824;SDS011;30542;47.928;2.138;2023-01-08T07:49:27;1.63;;;0.20;;
44824;SDS011;30542;47.928;2.138;2023-01-08T07:54:27;1.40;;;0.20;;
44824;SDS011;30542;47.928;2.138;2023-01-08T07:59:28;1.80;;;0.10;;
44824;SDS011;30542;47.928;2.138;2023-01-08T08:04:28;0.63;;;0.10;;
44824;SDS011;30542;47.928;2.138;2023-01-08T08:09:28;0.40;;;0.20;;
44824;SDS011;30542;47.928;2.138;2023-01-08T08:14:29;0.87;;;0.10;;
44824;SDS011;30542;47.928;2.138;2023-01-08T08:19:29;0.40;;;0.10;;
44824;SDS011;30542;47.928;2.138;2023-01-08T08:24:29;0.60;;;0.10;;
44824;SDS011;30542;47.928;2.138;2023-01-08T08:29:30;0.30;;;0.20;;
44824;SDS011;30542;47.928;2.138;2023-01-08T08:34:31;1.70;;;0.20;;
44824;SDS011;30542;47.928;2.138;2023-01-08T08:39:32;0.60;;;0.10;;
44824;SDS011;30542;47.928;2.138;2023-01-08T08:44:32;0.38;;;0.25;;
44824;SDS011;30542;47.928;2.138;2023-01-08T08:49:33;1.33;;;0.20;;
44824;SDS011;30542;47.928;2.138;2023-01-08T08:54:35;0.50;;;0.10;;
44824;SDS011;30542;47.928;2.138;2023-01-08T08:59:40;0.30;;;0.10;;
44824;SDS011;30542;47.928;2.138;2023-01-08T09:04:42;1.50;;;0.20;;
44824;SDS011;30542;47.928;2.138;2023-01-08T09:09:42;1.50;;;0.20;;
44824;SDS011;30542;47.928;2.138;2023-01-08T09:14:43;1.83;;;0.20;;
44824;SDS011;30542;47.928;2.138;2023-01-08T09:19:43;1.73;;;0.10;;
44824;SDS011;30542;47.928;2.138;2023-01-08T09:24:44;0.95;;;0.10;;
44824;SDS011;30542;47.928;2.138;2023-01-08T09:29:44;1.95;;;0.22;;
44824;SDS011;30542;47.928;2.138;2023-01-08T09:34:45;0.63;;;0.20;;
44824;SDS011;30542;47.928;2.138;2023-01-08T09:39:45;1.60;;;0.23;;
44824;SDS011;30542;47.928;2.138;2023-01-08T09:44:45;1.23;;;0.30;;
44824;SDS011;30542;47.928;2.138;2023-01-08T09:49:49;5.72;;;0.43;;
44824;SDS011;30542;47.928;2.138;2023-01-08T09:54:51;4.38;;;0.70;;
44824;SDS011;30542;47.928;2.138;2023-01-08T09:59:52;4.70;;;0.70;;
44824;SDS011;30542;47.928;2.138;2023-01-08T10:04:53;4.87;;;0.60;;
44824;SDS011;30542;47.928;2.138;2023-01-08T10:09:56;15.88;;;1.83;;
44824;SDS011;30542;47.928;2.138;2023-01-08T10:14:57;2.20;;;0.33;;
44824;SDS011;30542;47.928;2.138;2023-01-08T10:20:02;4.00;;;0.50;;
44824;SDS011;30542;47.928;2.138;2023-01-08T10:25:32;4.28;;;0.52;;
44824;SDS011;30542;47.928;2.138;2023-01-08T10:30:35;4.88;;;0.75;;
44824;SDS011;30542;47.928;2.138;2023-01-08T10:35:37;9.30;;;1.15;;
44824;SDS011;30542;47.928;2.138;2023-01-08T10:40:40;4.97;;;1.15;;
44824;SDS011;30542;47.928;2.138;2023-01-08T10:46:48;4.93;;;0.87;;
44824;SDS011;30542;47.928;2.138;2023-01-08T10:51:26;14.85;;;2.42;;
44824;SDS011;30542;47.928;2.138;2023-01-08T10:56:29;7.72;;;1.75;;
44824;SDS011;30542;47.928;2.138;2023-01-08T11:01:31;7.70;;;1.92;;
44824;SDS011;30542;47.928;2.138;2023-01-08T11:06:33;8.48;;;2.25;;
44824;SDS011;30542;47.928;2.138;2023-01-08T11:11:44;9.45;;;2.00;;
44824;SDS011;30542;47.928;2.138;2023-01-08T11:16:44;7.63;;;1.90;;
44824;SDS011;30542;47.928;2.138;2023-01-08T11:21:59;5.15;;;1.15;;
44824;SDS011;30542;47.928;2.138;2023-01-08T11:32:29;5.47;;;1.08;;
44824;SDS011;30542;47.928;2.138;2023-01-08T11:37:52;3.92;;;1.17;;
44824;SDS011;30542;47.928;2.138;2023-01-08T11:48:25;5.03;;;0.98;;
44824;SDS011;30542;47.928;2.138;2023-01-08T12:04:39;5.15;;;0.68;;
44824;SDS011;30542;47.928;2.138;2023-01-08T12:09:45;2.90;;;0.68;;
44824;SDS011;30542;47.928;2.138;2023-01-08T12:20:42;3.40;;;0.93;;
44824;SDS011;30542;47.928;2.138;2023-01-08T12:36:23;2.63;;;0.52;;
44824;SDS011;30542;47.928;2.138;2023-01-08T12:41:30;1.38;;;0.50;;
44824;SDS011;30542;47.928;2.138;2023-01-08T12:46:34;1.83;;;0.47;;
44824;SDS011;30542;47.928;2.138;2023-01-08T13:07:27;2.08;;;0.45;;
44824;SDS011;30542;47.928;2.138;2023-01-08T13:12:35;2.95;;;0.50;;
44824;SDS011;30542;47.928;2.138;2023-01-08T13:17:39;2.45;;;0.40;;
44824;SDS011;30542;47.928;2.138;2023-01-08T13:22:39;1.85;;;0.38;;
44824;SDS011;30542;47.928;2.138;2023-01-08T13:27:40;2.13;;;0.60;;
44824;SDS011;30542;47.928;2.138;2023-01-08T13:32:47;5.00;;;1.00;;
44824;SDS011;30542;47.928;2.138;2023-01-08T13:37:52;3.70;;;0.60;;
44824;SDS011;30542;47.928;2.138;2023-01-08T13:48:21;4.20;;;0.85;;
44824;SDS011;30542;47.928;2.138;2023-01-08T13:53:25;2.65;;;0.60;;
44824;SDS011;30542;47.928;2.138;2023-01-08T13:58:26;4.07;;;0.52;;
44824;SDS011;30542;47.928;2.138;2023-01-08T14:03:32;3.08;;;0.70;;
44824;SDS011;30542;47.928;2.138;2023-01-08T14:08:36;1.83;;;0.40;;
44824;SDS011;30542;47.928;2.138;2023-01-08T14:13:47;2.08;;;0.47;;
44824;SDS011;30542;47.928;2.138;2023-01-08T14:18:48;2.50;;;0.60;;
44824;SDS011;30542;47.928;2.138;2023-01-08T14:23:50;4.22;;;0.43;;
44824;SDS011;30542;47.928;2.138;2023-01-08T14:28:53;2.92;;;0.55;;
44824;SDS011;30542;47.928;2.138;2023-01-08T14:33:54;1.85;;;0.40;;
44824;SDS011;30542;47.928;2.138;2023-01-08T14:38:56;1.73;;;0.30;;
44824;SDS011;30542;47.928;2.138;2023-01-08T14:43:57;2.33;;;0.30;;
44824;SDS011;30542;47.928;2.138;2023-01-08T14:48:57;2.73;;;0.83;;
44824;SDS011;30542;47.928;2.138;2023-01-08T14:54:02;2.25;;;0.40;;
44824;SDS011;30542;47.928;2.138;2023-01-08T14:59:06;1.08;;;0.40;;
44824;SDS011;30542;47.928;2.138;2023-01-08T15:04:17;2.22;;;0.40;;
44824;SDS011;30542;47.928;2.138;2023-01-08T15:09:32;1.88;;;0.38;;
44824;SDS011;30542;47.928;2.138;2023-01-08T15:14:34;1.30;;;0.40;;
44824;SDS011;30542;47.928;2.138;2023-01-08T15:19:39;2.15;;;0.60;;
44824;SDS011;30542;47.928;2.138;2023-01-08T15:24:51;3.35;;;1.13;;
44824;SDS011;30542;47.928;2.138;2023-01-08T15:30:00;3.83;;;1.95;;
44824;SDS011;30542;47.928;2.138;2023-01-08T15:35:13;3.80;;;2.70;;
44824;SDS011;30542;47.928;2.138;2023-01-08T15:40:15;3.90;;;3.38;;
44824;SDS011;30542;47.928;2.138;2023-01-08T15:45:25;3.70;;;2.65;;
44824;SDS011;30542;47.928;2.138;2023-01-08T15:50:27;4.05;;;2.78;;
44824;SDS011;30542;47.928;2.138;2023-01-08T15:55:28;5.05;;;3.00;;
44824;SDS011;30542;47.928;2.138;2023-01-08T16:00:31;5.93;;;3.55;;
44824;SDS011;30542;47.928;2.138;2023-01-08T16:05:31;4.07;;;2.97;;
44824;SDS011;30542;47.928;2.138;2023-01-08T16:10:33;3.35;;;2.90;;
44824;SDS011;30542;47.928;2.138;2023-01-08T16:15:33;4.88;;;3.40;;
44824;SDS011;30542;47.928;2.138;2023-01-08T16:20:34;4.13;;;3.57;;
44824;SDS011;30542;47.928;2.138;2023-01-08T16:25:37;4.68;;;3.75;;
44824;SDS011;30542;47.928;2.138;2023-01-08T16:30:38;5.57;;;3.17;;
44824;SDS011;30542;47.928;2.138;2023-01-08T16:35:40;7.05;;;3.28;;
44824;SDS011;30542;47.928;2.138;2023-01-08T16:40:40;5.68;;;3.60;;
44824;SDS011;30542;47.928;2.138;2023-01-08T16:45:45;7.83;;;4.03;;
44824;SDS011;30542;47.928;2.138;2023-01-08T16:50:46;5.30;;;3.60;;
44824;SDS011;30542;47.928;2.138;2023-01-08T16:55:47;6.72;;;3.78;;
44824;SDS011;30542;47.928;2.138;2023-01-08T17:00:47;5.30;;;2.90;;
44824;SDS011;30542;47.928;2.138;2023-01-08T17:05:48;3.87;;;2.63;;
44824;SDS011;30542;47.928;2.138;2023-01-08T17:10:49;5.20;;;2.88;;
44824;SDS011;30542;47.928;2.138;2023-01-08T17:15:49;3.77;;;2.40;;
44824;SDS011;30542;47.928;2.138;2023-01-08T17:20:52;4.18;;;2.08;;
44824;SDS011;30542;47.928;2.138;2023-01-08T17:25:53;2.60;;;1.60;;
44824;SDS011;30542;47.928;2.138;2023-01-08T17:36:07;3.30;;;1.08;;
44824;SDS011;30542;47.928;2.138;2023-01-08T17:41:19;5.28;;;1.83;;
44824;SDS011;30542;47.928;2.138;2023-01-08T17:46:40;3.60;;;1.40;;
44824;SDS011;30542;47.928;2.138;2023-01-08T17:51:44;2.78;;;1.38;;
44824;SDS011;30542;47.928;2.138;2023-01-08T17:56:44;3.80;;;1.88;;
44824;SDS011;30542;47.928;2.138;2023-01-08T18:01:47;2.58;;;1.90;;
44824;SDS011;30542;47.928;2.138;2023-01-08T18:06:50;2.55;;;1.70;;
44824;SDS011;30542;47.928;2.138;2023-01-08T18:11:51;4.07;;;2.10;;
44824;SDS011;30542;47.928;2.138;2023-01-08T18:16:51;2.97;;;2.00;;
44824;SDS011;30542;47.928;2.138;2023-01-08T18:21:52;3.38;;;1.90;;
44824;SDS011;30542;47.928;2.138;2023-01-08T18:26:53;3.85;;;2.17;;
44824;SDS011;30542;47.928;2.138;2023-01-08T18:31:54;2.03;;;1.65;;
44824;SDS011;30542;47.928;2.138;2023-01-08T18:36:54;2.87;;;2.03;;
44824;SDS011;30542;47.928;2.138;2023-01-08T18:41:54;2.30;;;2.10;;
44824;SDS011;30542;47.928;2.138;2023-01-08T18:47:13;2.28;;;1.60;;
44824;SDS011;30542;47.928;2.138;2023-01-08T18:52:14;2.28;;;2.08;;
44824;SDS011;30542;47.928;2.138;2023-01-08T18:57:14;3.97;;;2.10;;
44824;SDS011;30542;47.928;2.138;2023-01-08T19:02:17;2.25;;;2.03;;
44824;SDS011;30542;47.928;2.138;2023-01-08T19:07:20;2.75;;;2.28;;
44824;SDS011;30542;47.928;2.138;2023-01-08T19:12:20;3.92;;;1.90;;
44824;SDS011;30542;47.928;2.138;2023-01-08T19:17:21;3.30;;;1.70;;
44824;SDS011;30542;47.928;2.138;2023-01-08T19:22:21;2.00;;;1.37;;
44824;SDS011;30542;47.928;2.138;2023-01-08T19:27:25;3.00;;;1.48;;
44824;SDS011;30542;47.928;2.138;2023-01-08T19:32:26;2.88;;;1.35;;
44824;SDS011;30542;47.928;2.138;2023-01-08T19:37:27;5.70;;;1.87;;
44824;SDS011;30542;47.928;2.138;2023-01-08T19:42:27;2.92;;;1.70;;
44824;SDS011;30542;47.928;2.138;2023-01-08T19:47:46;2.85;;;1.92;;
44824;SDS011;30542;47.928;2.138;2023-01-08T19:52:47;3.72;;;2.05;;
44824;SDS011;30542;47.928;2.138;2023-01-08T19:57:47;3.58;;;2.10;;
44824;SDS011;30542;47.928;2.138;2023-01-08T20:02:48;5.78;;;3.00;;
44824;SDS011;30542;47.928;2.138;2023-01-08T20:07:50;3.53;;;2.38;;
44824;SDS011;30542;47.928;2.138;2023-01-08T20:12:51;3.95;;;2.50;;
44824;SDS011;30542;47.928;2.138;2023-01-08T20:17:51;3.27;;;2.90;;
44824;SDS011;30542;47.928;2.138;2023-01-08T20:22:52;2.90;;;2.30;;
44824;SDS011;30542;47.928;2.138;2023-01-08T20:27:52;2.53;;;1.90;;
44824;SDS011;30542;47.928;2.138;2023-01-08T20:32:53;2.33;;;1.98;;
44824;SDS011;30542;47.928;2.138;2023-01-08T20:37:53;2.85;;;2.10;;
44824;SDS011;30542;47.928;2.138;2023-01-08T20:42:53;2.73;;;2.03;;
44824;SDS011;30542;47.928;2.138;2023-01-08T20:47:54;3.27;;;1.90;;
44824;SDS011;30542;47.928;2.138;2023-01-08T20:52:55;3.35;;;1.75;;
44824;SDS011;30542;47.928;2.138;2023-01-08T20:57:55;2.33;;;1.60;;
44824;SDS011;30542;47.928;2.138;2023-01-08T21:02:56;1.85;;;1.55;;
44824;SDS011;30542;47.928;2.138;2023-01-08T21:07:56;1.40;;;0.90;;
44824;SDS011;30542;47.928;2.138;2023-01-08T21:12:57;2.53;;;1.17;;
44824;SDS011;30542;47.928;2.138;2023-01-08T21:17:57;1.75;;;0.95;;
44824;SDS011;30542;47.928;2.138;2023-01-08T21:22:58;1.73;;;1.30;;
44824;SDS011;30542;47.928;2.138;2023-01-08T21:27:59;2.30;;;0.82;;
44824;SDS011;30542;47.928;2.138;2023-01-08T21:33:00;2.45;;;0.90;;
44824;SDS011;30542;47.928;2.138;2023-01-08T21:38:01;1.43;;;0.70;;
44824;SDS011;30542;47.928;2.138;2023-01-08T21:43:01;1.93;;;0.70;;
44824;SDS011;30542;47.928;2.138;2023-01-08T21:48:20;1.42;;;0.60;;
44824;SDS011;30542;47.928;2.138;2023-01-08T21:53:22;2.92;;;0.60;;
44824;SDS011;30542;47.928;2.138;2023-01-08T21:58:31;1.50;;;0.60;;
44824;SDS011;30542;47.928;2.138;2023-01-08T22:03:31;0.93;;;0.40;;
44824;SDS011;30542;47.928;2.138;2023-01-08T22:08:32;0.77;;;0.40;;
44824;SDS011;30542;47.928;2.138;2023-01-08T22:13:33;1.63;;;0.50;;
44824;SDS011;30542;47.928;2.138;2023-01-08T22:18:35;1.98;;;0.45;;
44824;SDS011;30542;47.928;2.138;2023-01-08T22:23:36;0.65;;;0.30;;
44824;SDS011;30542;47.928;2.138;2023-01-08T22:28:37;0.95;;;0.40;;
44824;SDS011;30542;47.928;2.138;2023-01-08T22:33:38;1.13;;;0.40;;
44824;SDS011;30542;47.928;2.138;2023-01-08T22:38:39;0.68;;;0.32;;
44824;SDS011;30542;47.928;2.138;2023-01-08T22:43:39;1.42;;;0.30;;
44824;SDS011;30542;47.928;2.138;2023-01-08T22:48:40;1.73;;;0.50;;
44824;SDS011;30542;47.928;2.138;2023-01-08T22:53:42;2.35;;;0.52;;
44824;SDS011;30542;47.928;2.138;2023-01-08T22:58:42;1.50;;;0.50;;
44824;SDS011;30542;47.928;2.138;2023-01-08T23:03:47;1.15;;;0.30;;
44824;SDS011;30542;47.928;2.138;2023-01-08T23:08:52;1.50;;;0.30;;
44824;SDS011;30542;47.928;2.138;2023-01-08T23:13:53;2.17;;;0.40;;
44824;SDS011;30542;47.928;2.138;2023-01-08T23:18:54;1.00;;;0.30;;
44824;SDS011;30542;47.928;2.138;2023-01-08T23:23:55;1.65;;;0.20;;
44824;SDS011;30542;47.928;2.138;2023-01-08T23:28:56;1.83;;;0.25;;
44824;SDS011;30542;47.928;2.138;2023-01-08T23:33:57;1.17;;;0.40;;
44824;SDS011;30542;47.928;2.138;2023-01-08T23:38:58;2.73;;;0.30;;
44824;SDS011;30542;47.928;2.138;2023-01-08T23:44:06;2.22;;;0.43;;
44824;SDS011;30542;47.928;2.138;2023-01-08T23:49:09;1.77;;;0.30;;
44824;SDS011;30542;47.928;2.138;2023-01-08T23:54:10;1.25;;;0.30;;
44824;SDS011;30542;47.928;2.138;2023-01-08T23:59:11;2.38;;;0.25;;
